Airfield :
LOGIN :

Register | Disclaimer

   EN    FR    IT 

 










Legend :    VFR   Marginal VFR   IFR   Intensive IFR   Very Intensive IFR
Visi :
Ceiling :
>= 8 km
>= 3000ft
5 to 8 km
1000 to 3000 ft
1500m to 5 km
500 to 1000 ft
800 to 1500m
200 to 500 ft
< 800m
< 200 ft
Symbols :   Thunderstorms  Fog  Heavy snow  Heavy precipitations  Wind > 20 kt
SIGMETs :     Misc.  Thunderstorms  Icing  Turbulence  Mountain Waves  Volcanic Ashes







- Airport Elevation : 183 ft
- IATA code : HAJ


EDDV - Hanover/Langenhagen Int.

CURRENT METAR :
  • 201620Z 16007KT 9999 FEW036 BKN045 03/M00 Q1001 NOSIG

EXPIRED METARs :
  • 201550Z 16007KT 9999 BKN046 03/M00 Q1001 NOSIG
  • 201520Z 16005KT 9999 BKN045 03/M00 Q1002 NOSIG
  • 201450Z 17005KT 9999 FEW038 BKN045 03/00 Q1002 NOSIG
  • 201420Z 16006KT 9999 BKN043 03/00 Q1002 TEMPO BKN012
  • 201350Z 17008KT 9999 FEW030 BKN043 03/00 Q1002 TEMPO BKN012

TAF TAF EDDV
Valid from the 20 at 12:00 until the 21 at 12:00 UTC


201100Z 2012/2112 21010KT 9999 BKN025
BECMG 2018/2021 26005KT 4000 -SN BKN012
TEMPO 2021/2109 1200 SN BKN004
BECMG 2109/2112 9999 BKN020
No reported NOTAMs for that airfield.



MET'MAP, your aeronautical weather chart ! - Copyright ORBIFLY December 2007 - Disclaimer

ORBIFLY MET'MAP TEAM :

Programming & Development : Alexandra Zaïnal
Concept & Development : Baudouin d'Aumeries
Co-Development & Prog : Marc-Olivier Méhu
Technical & hardware support : Manuel Goepfert

Contact : metmap@orbifly.com




SOURCES & CREDITS :

   NOAA